sensor_id;sensor_type;location;lat;lon;timestamp;temperature;humidity
5382;DHT22;2714;49.852;6.564;2023-02-28T00:02:11;0.00;99.90
5382;DHT22;2714;49.852;6.564;2023-02-28T00:06:12;0.00;99.90
5382;DHT22;2714;49.852;6.564;2023-02-28T00:10:16;-0.10;99.90
5382;DHT22;2714;49.852;6.564;2023-02-28T00:14:20;-0.20;99.90
5382;DHT22;2714;49.852;6.564;2023-02-28T00:18:21;-0.30;99.90
5382;DHT22;2714;49.852;6.564;2023-02-28T00:22:23;-0.30;99.90
5382;DHT22;2714;49.852;6.564;2023-02-28T00:26:23;-0.40;99.90
5382;DHT22;2714;49.852;6.564;2023-02-28T00:30:24;-0.40;99.90
5382;DHT22;2714;49.852;6.564;2023-02-28T00:34:24;-0.50;99.90
5382;DHT22;2714;49.852;6.564;2023-02-28T00:38:25;-0.40;99.90
5382;DHT22;2714;49.852;6.564;2023-02-28T00:42:26;-0.50;99.90
5382;DHT22;2714;49.852;6.564;2023-02-28T00:46:27;-0.50;99.90
5382;DHT22;2714;49.852;6.564;2023-02-28T00:50:28;-0.60;99.90
5382;DHT22;2714;49.852;6.564;2023-02-28T00:54:28;-0.70;99.90
5382;DHT22;2714;49.852;6.564;2023-02-28T00:58:29;-0.70;99.90
5382;DHT22;2714;49.852;6.564;2023-02-28T01:02:30;-0.80;99.90
5382;DHT22;2714;49.852;6.564;2023-02-28T01:06:31;-0.80;99.90
5382;DHT22;2714;49.852;6.564;2023-02-28T01:10:32;-0.80;99.90
5382;DHT22;2714;49.852;6.564;2023-02-28T01:14:33;-0.80;99.90
5382;DHT22;2714;49.852;6.564;2023-02-28T01:18:33;-0.80;99.90
5382;DHT22;2714;49.852;6.564;2023-02-28T01:22:35;-0.80;99.90
5382;DHT22;2714;49.852;6.564;2023-02-28T01:26:35;-0.70;99.90
5382;DHT22;2714;49.852;6.564;2023-02-28T01:30:36;-0.60;99.90
5382;DHT22;2714;49.852;6.564;2023-02-28T01:34:37;-0.60;99.90
5382;DHT22;2714;49.852;6.564;2023-02-28T01:38:37;-0.60;99.90
5382;DHT22;2714;49.852;6.564;2023-02-28T01:42:38;-0.70;99.90
5382;DHT22;2714;49.852;6.564;2023-02-28T01:46:39;-0.60;99.90
5382;DHT22;2714;49.852;6.564;2023-02-28T01:50:42;-0.60;99.90
5382;DHT22;2714;49.852;6.564;2023-02-28T01:54:45;-0.60;99.90
5382;DHT22;2714;49.852;6.564;2023-02-28T01:58:53;-0.60;99.90
5382;DHT22;2714;49.852;6.564;2023-02-28T02:02:57;-0.50;99.90
5382;DHT22;2714;49.852;6.564;2023-02-28T02:06:59;-0.60;99.90
5382;DHT22;2714;49.852;6.564;2023-02-28T02:11:01;-0.60;99.90
5382;DHT22;2714;49.852;6.564;2023-02-28T02:15:16;-0.60;99.90
5382;DHT22;2714;49.852;6.564;2023-02-28T02:28:41;-0.80;99.90
5382;DHT22;2714;49.852;6.564;2023-02-28T02:33:16;-0.80;99.90
5382;DHT22;2714;49.852;6.564;2023-02-28T02:37:39;-1.00;99.90
5382;DHT22;2714;49.852;6.564;2023-02-28T02:45:55;-1.10;99.90
5382;DHT22;2714;49.852;6.564;2023-02-28T02:49:59;-1.10;99.90
5382;DHT22;2714;49.852;6.564;2023-02-28T02:54:05;-1.00;99.90
5382;DHT22;2714;49.852;6.564;2023-02-28T02:58:12;-1.00;99.90
5382;DHT22;2714;49.852;6.564;2023-02-28T03:02:15;-1.00;99.90
5382;DHT22;2714;49.852;6.564;2023-02-28T03:06:17;-1.10;99.90
5382;DHT22;2714;49.852;6.564;2023-02-28T03:32:27;-1.10;99.90
5382;DHT22;2714;49.852;6.564;2023-02-28T03:36:34;-1.10;99.90
5382;DHT22;2714;49.852;6.564;2023-02-28T03:40:46;-1.10;99.90
5382;DHT22;2714;49.852;6.564;2023-02-28T03:44:57;-1.10;99.90
5382;DHT22;2714;49.852;6.564;2023-02-28T03:49:11;-1.10;99.90
5382;DHT22;2714;49.852;6.564;2023-02-28T04:01:38;-1.00;99.90
5382;DHT22;2714;49.852;6.564;2023-02-28T04:05:53;-1.10;99.90
5382;DHT22;2714;49.852;6.564;2023-02-28T04:09:54;-1.10;99.90
5382;DHT22;2714;49.852;6.564;2023-02-28T04:13:55;-1.10;99.90
5382;DHT22;2714;49.852;6.564;2023-02-28T04:17:56;-1.10;99.90
5382;DHT22;2714;49.852;6.564;2023-02-28T04:21:56;-1.10;99.90
5382;DHT22;2714;49.852;6.564;2023-02-28T04:25:57;-1.10;99.90
5382;DHT22;2714;49.852;6.564;2023-02-28T04:29:57;-1.10;99.90
5382;DHT22;2714;49.852;6.564;2023-02-28T04:34:00;-1.10;99.90
5382;DHT22;2714;49.852;6.564;2023-02-28T04:38:00;-1.10;99.90
5382;DHT22;2714;49.852;6.564;2023-02-28T04:42:01;-1.20;99.90
5382;DHT22;2714;49.852;6.564;2023-02-28T04:46:04;-1.20;99.90
5382;DHT22;2714;49.852;6.564;2023-02-28T04:50:05;-1.30;99.90
5382;DHT22;2714;49.852;6.564;2023-02-28T04:54:06;-1.30;99.90
5382;DHT22;2714;49.852;6.564;2023-02-28T04:58:06;-1.40;99.90
5382;DHT22;2714;49.852;6.564;2023-02-28T05:02:07;-1.40;99.90
5382;DHT22;2714;49.852;6.564;2023-02-28T05:06:08;-1.40;99.90
5382;DHT22;2714;49.852;6.564;2023-02-28T05:10:10;-1.50;99.90
5382;DHT22;2714;49.852;6.564;2023-02-28T05:14:12;-1.40;99.90
5382;DHT22;2714;49.852;6.564;2023-02-28T05:18:13;-1.40;99.90
5382;DHT22;2714;49.852;6.564;2023-02-28T05:22:14;-1.50;99.90
5382;DHT22;2714;49.852;6.564;2023-02-28T05:26:17;-1.50;99.90
5382;DHT22;2714;49.852;6.564;2023-02-28T05:30:17;-1.50;99.90
5382;DHT22;2714;49.852;6.564;2023-02-28T05:34:18;-1.50;99.90
5382;DHT22;2714;49.852;6.564;2023-02-28T05:38:18;-1.50;99.90
5382;DHT22;2714;49.852;6.564;2023-02-28T05:42:20;-1.60;99.90
5382;DHT22;2714;49.852;6.564;2023-02-28T05:46:20;-1.60;99.90
5382;DHT22;2714;49.852;6.564;2023-02-28T05:50:21;-1.60;99.90
5382;DHT22;2714;49.852;6.564;2023-02-28T05:54:22;-1.60;99.90
5382;DHT22;2714;49.852;6.564;2023-02-28T05:58:23;-1.70;99.90
5382;DHT22;2714;49.852;6.564;2023-02-28T06:02:23;-1.70;99.90
5382;DHT22;2714;49.852;6.564;2023-02-28T06:06:24;-1.70;99.90
5382;DHT22;2714;49.852;6.564;2023-02-28T06:10:24;-1.70;99.90
5382;DHT22;2714;49.852;6.564;2023-02-28T06:14:25;-1.70;99.90
5382;DHT22;2714;49.852;6.564;2023-02-28T06:18:26;-1.70;99.90
5382;DHT22;2714;49.852;6.564;2023-02-28T06:22:26;-1.70;99.90
5382;DHT22;2714;49.852;6.564;2023-02-28T06:26:27;-1.70;99.90
5382;DHT22;2714;49.852;6.564;2023-02-28T06:30:28;-1.70;99.90
5382;DHT22;2714;49.852;6.564;2023-02-28T06:34:30;-1.70;99.90
5382;DHT22;2714;49.852;6.564;2023-02-28T06:38:31;-1.60;99.90
5382;DHT22;2714;49.852;6.564;2023-02-28T06:42:32;-1.60;99.90
5382;DHT22;2714;49.852;6.564;2023-02-28T06:46:32;-1.60;99.90
5382;DHT22;2714;49.852;6.564;2023-02-28T06:50:33;-1.50;99.90
5382;DHT22;2714;49.852;6.564;2023-02-28T06:54:33;-1.50;99.90
5382;DHT22;2714;49.852;6.564;2023-02-28T06:58:34;-1.50;99.90
5382;DHT22;2714;49.852;6.564;2023-02-28T07:02:36;-1.40;99.90
5382;DHT22;2714;49.852;6.564;2023-02-28T07:06:37;-1.40;99.90
5382;DHT22;2714;49.852;6.564;2023-02-28T07:10:38;-1.40;99.90
5382;DHT22;2714;49.852;6.564;2023-02-28T07:14:39;-1.30;99.90
5382;DHT22;2714;49.852;6.564;2023-02-28T07:18:40;-1.20;99.90
5382;DHT22;2714;49.852;6.564;2023-02-28T07:22:40;-1.20;99.90
5382;DHT22;2714;49.852;6.564;2023-02-28T07:26:42;-1.10;99.90
5382;DHT22;2714;49.852;6.564;2023-02-28T07:30:42;-1.10;99.90
5382;DHT22;2714;49.852;6.564;2023-02-28T07:34:43;-1.00;99.90
5382;DHT22;2714;49.852;6.564;2023-02-28T07:38:45;-1.00;99.90
5382;DHT22;2714;49.852;6.564;2023-02-28T07:42:48;-0.80;99.90
5382;DHT22;2714;49.852;6.564;2023-02-28T07:46:48;-0.70;99.90
5382;DHT22;2714;49.852;6.564;2023-02-28T07:50:56;-0.60;99.90
5382;DHT22;2714;49.852;6.564;2023-02-28T07:54:57;-0.40;99.90
5382;DHT22;2714;49.852;6.564;2023-02-28T07:58:57;-0.20;99.90
5382;DHT22;2714;49.852;6.564;2023-02-28T08:02:58;0.50;99.90
5382;DHT22;2714;49.852;6.564;2023-02-28T08:06:58;4.70;99.90
5382;DHT22;2714;49.852;6.564;2023-02-28T08:11:00;7.80;99.90
5382;DHT22;2714;49.852;6.564;2023-02-28T08:15:01;9.60;97.00
5382;DHT22;2714;49.852;6.564;2023-02-28T08:19:02;10.40;92.60
5382;DHT22;2714;49.852;6.564;2023-02-28T08:23:02;9.80;92.00
5382;DHT22;2714;49.852;6.564;2023-02-28T08:27:03;9.20;92.20
5382;DHT22;2714;49.852;6.564;2023-02-28T08:31:10;9.90;91.90
5382;DHT22;2714;49.852;6.564;2023-02-28T08:35:11;10.80;89.20
5382;DHT22;2714;49.852;6.564;2023-02-28T08:39:12;11.00;87.50
5382;DHT22;2714;49.852;6.564;2023-02-28T08:43:13;11.40;84.50
5382;DHT22;2714;49.852;6.564;2023-02-28T08:47:13;12.10;82.10
5382;DHT22;2714;49.852;6.564;2023-02-28T08:51:16;13.40;77.80
5382;DHT22;2714;49.852;6.564;2023-02-28T08:55:18;13.20;74.70
5382;DHT22;2714;49.852;6.564;2023-02-28T08:59:19;13.50;71.80
5382;DHT22;2714;49.852;6.564;2023-02-28T09:03:21;13.30;71.40
5382;DHT22;2714;49.852;6.564;2023-02-28T09:07:21;13.20;68.70
5382;DHT22;2714;49.852;6.564;2023-02-28T09:11:22;13.20;68.40
5382;DHT22;2714;49.852;6.564;2023-02-28T09:15:22;13.30;66.30
5382;DHT22;2714;49.852;6.564;2023-02-28T09:19:23;11.70;64.90
5382;DHT22;2714;49.852;6.564;2023-02-28T09:23:24;9.40;70.40
5382;DHT22;2714;49.852;6.564;2023-02-28T09:27:25;10.10;68.50
5382;DHT22;2714;49.852;6.564;2023-02-28T09:31:27;7.60;70.60
5382;DHT22;2714;49.852;6.564;2023-02-28T09:35:28;5.90;77.30
5382;DHT22;2714;49.852;6.564;2023-02-28T09:39:29;5.70;81.20
5382;DHT22;2714;49.852;6.564;2023-02-28T09:43:34;6.10;83.70
5382;DHT22;2714;49.852;6.564;2023-02-28T09:47:41;8.80;78.30
5382;DHT22;2714;49.852;6.564;2023-02-28T09:51:45;11.00;71.20
5382;DHT22;2714;49.852;6.564;2023-02-28T09:55:52;11.60;66.20
5382;DHT22;2714;49.852;6.564;2023-02-28T10:04:50;7.40;69.90
5382;DHT22;2714;49.852;6.564;2023-02-28T10:09:02;6.60;75.70
5382;DHT22;2714;49.852;6.564;2023-02-28T10:13:07;6.70;76.80
5382;DHT22;2714;49.852;6.564;2023-02-28T10:17:22;7.90;72.40
5382;DHT22;2714;49.852;6.564;2023-02-28T10:25:28;6.10;79.30
5382;DHT22;2714;49.852;6.564;2023-02-28T10:29:32;7.40;77.80
5382;DHT22;2714;49.852;6.564;2023-02-28T10:33:34;8.60;76.20
5382;DHT22;2714;49.852;6.564;2023-02-28T10:37:38;9.20;73.40
5382;DHT22;2714;49.852;6.564;2023-02-28T10:41:42;10.40;71.90
5382;DHT22;2714;49.852;6.564;2023-02-28T10:45:53;9.70;71.40
5382;DHT22;2714;49.852;6.564;2023-02-28T10:49:55;7.60;74.70
5382;DHT22;2714;49.852;6.564;2023-02-28T10:53:56;7.00;79.40
5382;DHT22;2714;49.852;6.564;2023-02-28T10:57:57;8.10;76.60
5382;DHT22;2714;49.852;6.564;2023-02-28T11:01:57;7.10;79.00
5382;DHT22;2714;49.852;6.564;2023-02-28T11:06:03;6.80;80.70
5382;DHT22;2714;49.852;6.564;2023-02-28T11:10:05;9.10;77.30
5382;DHT22;2714;49.852;6.564;2023-02-28T11:14:06;9.60;75.20
5382;DHT22;2714;49.852;6.564;2023-02-28T11:18:27;8.80;75.80
5382;DHT22;2714;49.852;6.564;2023-02-28T11:22:31;6.50;78.20
5382;DHT22;2714;49.852;6.564;2023-02-28T11:26:42;6.60;81.40
5382;DHT22;2714;49.852;6.564;2023-02-28T11:30:43;6.10;81.80
5382;DHT22;2714;49.852;6.564;2023-02-28T11:34:45;5.60;84.80
5382;DHT22;2714;49.852;6.564;2023-02-28T11:38:46;5.70;83.90
5382;DHT22;2714;49.852;6.564;2023-02-28T11:47:17;7.50;79.80
5382;DHT22;2714;49.852;6.564;2023-02-28T11:51:32;7.20;79.70
5382;DHT22;2714;49.852;6.564;2023-02-28T11:55:39;7.20;77.30
5382;DHT22;2714;49.852;6.564;2023-02-28T12:00:03;7.30;78.80
5382;DHT22;2714;49.852;6.564;2023-02-28T12:04:25;6.60;77.40
5382;DHT22;2714;49.852;6.564;2023-02-28T12:08:49;6.50;78.20
5382;DHT22;2714;49.852;6.564;2023-02-28T12:34:16;6.30;82.50
5382;DHT22;2714;49.852;6.564;2023-02-28T12:38:22;5.60;83.50
5382;DHT22;2714;49.852;6.564;2023-02-28T12:42:30;5.60;84.20
5382;DHT22;2714;49.852;6.564;2023-02-28T12:46:50;6.30;85.30
5382;DHT22;2714;49.852;6.564;2023-02-28T12:50:51;7.30;80.60
5382;DHT22;2714;49.852;6.564;2023-02-28T12:54:58;6.60;80.20
5382;DHT22;2714;49.852;6.564;2023-02-28T12:59:16;6.50;81.20
5382;DHT22;2714;49.852;6.564;2023-02-28T13:11:59;5.50;82.40
5382;DHT22;2714;49.852;6.564;2023-02-28T13:16:08;5.50;83.10
5382;DHT22;2714;49.852;6.564;2023-02-28T13:20:21;5.60;84.60
5382;DHT22;2714;49.852;6.564;2023-02-28T13:28:57;5.20;85.10
5382;DHT22;2714;49.852;6.564;2023-02-28T13:33:20;4.90;83.00
5382;DHT22;2714;49.852;6.564;2023-02-28T13:45:31;5.20;86.00
5382;DHT22;2714;49.852;6.564;2023-02-28T13:49:38;5.40;85.70
5382;DHT22;2714;49.852;6.564;2023-02-28T13:53:56;5.50;86.40
5382;DHT22;2714;49.852;6.564;2023-02-28T14:06:55;5.00;85.70
5382;DHT22;2714;49.852;6.564;2023-02-28T14:11:06;4.90;85.30
5382;DHT22;2714;49.852;6.564;2023-02-28T14:19:36;5.00;86.10
5382;DHT22;2714;49.852;6.564;2023-02-28T14:32:33;5.00;87.90
5382;DHT22;2714;49.852;6.564;2023-02-28T14:36:37;4.90;87.40
5382;DHT22;2714;49.852;6.564;2023-02-28T14:40:38;4.80;88.20
5382;DHT22;2714;49.852;6.564;2023-02-28T14:44:39;4.90;87.50
5382;DHT22;2714;49.852;6.564;2023-02-28T14:48:40;4.80;87.60
5382;DHT22;2714;49.852;6.564;2023-02-28T14:52:43;4.70;87.00
5382;DHT22;2714;49.852;6.564;2023-02-28T14:56:43;4.70;87.10
5382;DHT22;2714;49.852;6.564;2023-02-28T15:00:50;4.70;88.70
5382;DHT22;2714;49.852;6.564;2023-02-28T15:04:57;4.80;88.00
5382;DHT22;2714;49.852;6.564;2023-02-28T15:09:17;4.70;87.10
5382;DHT22;2714;49.852;6.564;2023-02-28T15:13:19;4.70;87.10
5382;DHT22;2714;49.852;6.564;2023-02-28T15:17:23;4.60;87.20
5382;DHT22;2714;49.852;6.564;2023-02-28T15:21:37;4.50;87.50
5382;DHT22;2714;49.852;6.564;2023-02-28T15:25:40;4.50;87.40
5382;DHT22;2714;49.852;6.564;2023-02-28T15:29:47;4.50;87.40
5382;DHT22;2714;49.852;6.564;2023-02-28T15:34:03;4.50;88.70
5382;DHT22;2714;49.852;6.564;2023-02-28T15:38:23;4.50;88.20
5382;DHT22;2714;49.852;6.564;2023-02-28T15:42:28;4.40;88.00
5382;DHT22;2714;49.852;6.564;2023-02-28T15:46:29;4.40;89.20
5382;DHT22;2714;49.852;6.564;2023-02-28T15:50:30;4.30;88.80
5382;DHT22;2714;49.852;6.564;2023-02-28T15:54:33;4.20;89.40
5382;DHT22;2714;49.852;6.564;2023-02-28T15:58:35;4.20;90.40
5382;DHT22;2714;49.852;6.564;2023-02-28T16:02:38;4.20;91.10
5382;DHT22;2714;49.852;6.564;2023-02-28T16:06:40;4.10;91.40
5382;DHT22;2714;49.852;6.564;2023-02-28T16:10:44;4.00;90.70
5382;DHT22;2714;49.852;6.564;2023-02-28T16:14:53;3.90;90.80
5382;DHT22;2714;49.852;6.564;2023-02-28T16:18:54;3.80;91.10
5382;DHT22;2714;49.852;6.564;2023-02-28T16:22:55;3.80;91.80
5382;DHT22;2714;49.852;6.564;2023-02-28T16:26:56;3.70;91.60
5382;DHT22;2714;49.852;6.564;2023-02-28T16:31:00;3.70;91.70
5382;DHT22;2714;49.852;6.564;2023-02-28T16:35:03;3.70;92.20
5382;DHT22;2714;49.852;6.564;2023-02-28T16:39:04;3.60;92.20
5382;DHT22;2714;49.852;6.564;2023-02-28T16:43:08;3.50;92.60
5382;DHT22;2714;49.852;6.564;2023-02-28T16:47:10;3.40;93.00
5382;DHT22;2714;49.852;6.564;2023-02-28T16:51:13;3.40;93.20
5382;DHT22;2714;49.852;6.564;2023-02-28T16:55:14;3.30;93.60
5382;DHT22;2714;49.852;6.564;2023-02-28T16:59:24;3.30;93.80
5382;DHT22;2714;49.852;6.564;2023-02-28T17:03:26;3.20;94.20
5382;DHT22;2714;49.852;6.564;2023-02-28T17:07:28;3.10;94.60
5382;DHT22;2714;49.852;6.564;2023-02-28T17:11:29;3.00;95.40
5382;DHT22;2714;49.852;6.564;2023-02-28T17:15:29;2.90;95.30
5382;DHT22;2714;49.852;6.564;2023-02-28T17:19:31;2.90;95.70
5382;DHT22;2714;49.852;6.564;2023-02-28T17:23:31;2.90;96.00
5382;DHT22;2714;49.852;6.564;2023-02-28T17:27:32;2.80;96.30
5382;DHT22;2714;49.852;6.564;2023-02-28T17:31:33;2.80;96.80
5382;DHT22;2714;49.852;6.564;2023-02-28T17:35:38;2.70;97.00
5382;DHT22;2714;49.852;6.564;2023-02-28T17:39:39;2.70;97.10
5382;DHT22;2714;49.852;6.564;2023-02-28T17:43:40;2.70;97.00
5382;DHT22;2714;49.852;6.564;2023-02-28T17:47:43;2.60;97.20
5382;DHT22;2714;49.852;6.564;2023-02-28T17:51:44;2.60;97.70
5382;DHT22;2714;49.852;6.564;2023-02-28T17:55:44;2.50;98.00
5382;DHT22;2714;49.852;6.564;2023-02-28T17:59:45;2.50;98.00
5382;DHT22;2714;49.852;6.564;2023-02-28T18:03:47;2.40;98.40
5382;DHT22;2714;49.852;6.564;2023-02-28T18:07:47;2.40;98.60
5382;DHT22;2714;49.852;6.564;2023-02-28T18:11:49;2.30;98.80
5382;DHT22;2714;49.852;6.564;2023-02-28T18:15:50;2.30;99.20
5382;DHT22;2714;49.852;6.564;2023-02-28T18:19:50;2.20;99.50
5382;DHT22;2714;49.852;6.564;2023-02-28T18:23:51;2.20;99.80
5382;DHT22;2714;49.852;6.564;2023-02-28T18:27:52;2.20;99.80
5382;DHT22;2714;49.852;6.564;2023-02-28T18:31:54;2.20;99.90
5382;DHT22;2714;49.852;6.564;2023-02-28T18:35:55;2.10;99.90
5382;DHT22;2714;49.852;6.564;2023-02-28T18:39:56;2.00;99.90
5382;DHT22;2714;49.852;6.564;2023-02-28T18:43:59;2.00;99.90
5382;DHT22;2714;49.852;6.564;2023-02-28T18:48:02;2.00;99.90
5382;DHT22;2714;49.852;6.564;2023-02-28T18:52:03;1.80;99.90
5382;DHT22;2714;49.852;6.564;2023-02-28T18:56:05;1.70;99.90
5382;DHT22;2714;49.852;6.564;2023-02-28T19:00:06;1.60;99.90
5382;DHT22;2714;49.852;6.564;2023-02-28T19:04:11;1.60;99.90
5382;DHT22;2714;49.852;6.564;2023-02-28T19:08:12;1.60;99.90
5382;DHT22;2714;49.852;6.564;2023-02-28T19:12:13;1.60;99.90
5382;DHT22;2714;49.852;6.564;2023-02-28T19:16:18;1.50;99.90
5382;DHT22;2714;49.852;6.564;2023-02-28T19:20:19;1.40;99.90
5382;DHT22;2714;49.852;6.564;2023-02-28T19:24:19;1.30;99.90
5382;DHT22;2714;49.852;6.564;2023-02-28T19:28:20;1.30;99.90
5382;DHT22;2714;49.852;6.564;2023-02-28T19:32:21;1.20;99.90
5382;DHT22;2714;49.852;6.564;2023-02-28T19:36:21;1.10;99.90
5382;DHT22;2714;49.852;6.564;2023-02-28T19:40:22;1.00;99.90
5382;DHT22;2714;49.852;6.564;2023-02-28T19:44:22;0.90;99.90
5382;DHT22;2714;49.852;6.564;2023-02-28T19:48:23;0.80;99.90
5382;DHT22;2714;49.852;6.564;2023-02-28T19:52:27;0.80;99.90
5382;DHT22;2714;49.852;6.564;2023-02-28T19:56:27;0.90;99.90
5382;DHT22;2714;49.852;6.564;2023-02-28T20:00:28;0.90;99.90
5382;DHT22;2714;49.852;6.564;2023-02-28T20:04:28;0.90;99.90
5382;DHT22;2714;49.852;6.564;2023-02-28T20:08:29;0.80;99.90
5382;DHT22;2714;49.852;6.564;2023-02-28T20:12:30;0.80;99.90
5382;DHT22;2714;49.852;6.564;2023-02-28T20:16:31;0.70;99.90
5382;DHT22;2714;49.852;6.564;2023-02-28T20:20:31;0.80;99.90
5382;DHT22;2714;49.852;6.564;2023-02-28T20:24:36;0.70;99.90
5382;DHT22;2714;49.852;6.564;2023-02-28T20:28:37;0.80;99.90
5382;DHT22;2714;49.852;6.564;2023-02-28T20:32:38;0.80;99.90
5382;DHT22;2714;49.852;6.564;2023-02-28T20:36:39;0.80;99.90
5382;DHT22;2714;49.852;6.564;2023-02-28T20:40:40;0.70;99.90
5382;DHT22;2714;49.852;6.564;2023-02-28T20:44:40;0.70;99.90
5382;DHT22;2714;49.852;6.564;2023-02-28T20:48:41;0.70;99.90
5382;DHT22;2714;49.852;6.564;2023-02-28T20:52:42;0.70;99.90
5382;DHT22;2714;49.852;6.564;2023-02-28T20:56:43;0.60;99.90
5382;DHT22;2714;49.852;6.564;2023-02-28T21:00:44;0.70;99.90
5382;DHT22;2714;49.852;6.564;2023-02-28T21:04:44;0.60;99.90
5382;DHT22;2714;49.852;6.564;2023-02-28T21:08:45;0.60;99.90
5382;DHT22;2714;49.852;6.564;2023-02-28T21:12:49;0.60;99.90
5382;DHT22;2714;49.852;6.564;2023-02-28T21:16:49;0.50;99.90
5382;DHT22;2714;49.852;6.564;2023-02-28T21:20:50;0.40;99.90
5382;DHT22;2714;49.852;6.564;2023-02-28T21:24:50;0.40;99.90
5382;DHT22;2714;49.852;6.564;2023-02-28T21:28:54;0.40;99.90
5382;DHT22;2714;49.852;6.564;2023-02-28T21:32:55;0.40;99.90
5382;DHT22;2714;49.852;6.564;2023-02-28T21:36:57;0.40;99.90
5382;DHT22;2714;49.852;6.564;2023-02-28T21:41:08;0.30;99.90
5382;DHT22;2714;49.852;6.564;2023-02-28T21:45:09;0.30;99.90
5382;DHT22;2714;49.852;6.564;2023-02-28T21:49:11;0.40;99.90
5382;DHT22;2714;49.852;6.564;2023-02-28T21:53:11;0.30;99.90
5382;DHT22;2714;49.852;6.564;2023-02-28T21:57:12;0.30;99.90
5382;DHT22;2714;49.852;6.564;2023-02-28T22:01:20;0.40;99.90
5382;DHT22;2714;49.852;6.564;2023-02-28T22:05:21;0.30;99.90
5382;DHT22;2714;49.852;6.564;2023-02-28T22:09:22;0.20;99.90
5382;DHT22;2714;49.852;6.564;2023-02-28T22:13:22;0.20;99.90
5382;DHT22;2714;49.852;6.564;2023-02-28T22:17:23;0.10;99.90
5382;DHT22;2714;49.852;6.564;2023-02-28T22:21:24;0.20;99.90
5382;DHT22;2714;49.852;6.564;2023-02-28T22:25:24;0.20;99.90
5382;DHT22;2714;49.852;6.564;2023-02-28T22:29:25;0.20;99.90
5382;DHT22;2714;49.852;6.564;2023-02-28T22:33:26;0.20;99.90
5382;DHT22;2714;49.852;6.564;2023-02-28T22:37:27;0.20;99.90
5382;DHT22;2714;49.852;6.564;2023-02-28T22:41:28;0.20;99.90
5382;DHT22;2714;49.852;6.564;2023-02-28T22:45:29;0.20;99.90
5382;DHT22;2714;49.852;6.564;2023-02-28T22:49:29;0.10;99.90
5382;DHT22;2714;49.852;6.564;2023-02-28T22:53:31;0.00;99.90
5382;DHT22;2714;49.852;6.564;2023-02-28T22:57:32;0.10;99.90
5382;DHT22;2714;49.852;6.564;2023-02-28T23:01:33;0.10;99.90
5382;DHT22;2714;49.852;6.564;2023-02-28T23:05:34;0.10;99.90
5382;DHT22;2714;49.852;6.564;2023-02-28T23:09:34;0.20;99.90
5382;DHT22;2714;49.852;6.564;2023-02-28T23:13:36;0.20;99.90
5382;DHT22;2714;49.852;6.564;2023-02-28T23:17:37;0.20;99.90
5382;DHT22;2714;49.852;6.564;2023-02-28T23:21:37;0.20;99.90
5382;DHT22;2714;49.852;6.564;2023-02-28T23:25:39;0.10;99.90
5382;DHT22;2714;49.852;6.564;2023-02-28T23:29:40;0.00;99.90
5382;DHT22;2714;49.852;6.564;2023-02-28T23:33:41;0.00;99.90
5382;DHT22;2714;49.852;6.564;2023-02-28T23:37:42;-0.10;99.90
5382;DHT22;2714;49.852;6.564;2023-02-28T23:41:43;-0.40;99.90
5382;DHT22;2714;49.852;6.564;2023-02-28T23:45:43;-0.60;99.90
5382;DHT22;2714;49.852;6.564;2023-02-28T23:49:45;-0.70;99.90
5382;DHT22;2714;49.852;6.564;2023-02-28T23:53:50;-0.60;99.90
5382;DHT22;2714;49.852;6.564;2023-02-28T23:57:50;-0.70;99.90
